Terminal Aerodrome Forecast
Issued by NWS

Home | Current Version | Previous Version | Graphics & Text | Print | Product List | Glossary On
Versions: 1 2 3 4 5 6 7 8 9 10 11 12 13 14 15 16 17 18 19 20 21
353
FTUS43 KLOT 212320
TAFDPA
TAF
KDPA 212320Z 2200/2224 07007KT P6SM SCT100 OVC150
     FM220200 00000KT P6SM OVC200
     FM221800 08010KT P6SM BKN250=

USA.gov is the U.S. government's official web portal to all federal, state and local government web resources and services.